createdAt,value
2019-02-28T00:00:41.758Z,9.08
2019-02-28T00:01:43.224Z,9.03
2019-02-28T00:02:41.682Z,8.94
2019-02-28T00:03:41.641Z,8.89
2019-02-28T00:04:41.607Z,8.89
2019-02-28T00:05:41.573Z,8.91
2019-02-28T00:06:44.054Z,8.89
2019-02-28T00:07:41.508Z,8.89
2019-02-28T00:08:41.469Z,8.94
2019-02-28T00:09:41.434Z,8.91
2019-02-28T00:10:41.400Z,8.89
2019-02-28T00:11:41.371Z,8.91
2019-02-28T00:12:41.340Z,8.89
2019-02-28T00:13:41.293Z,8.85
2019-02-28T00:14:41.266Z,8.78
2019-02-28T00:15:41.216Z,8.76
2019-02-28T00:16:41.210Z,8.79
2019-02-28T00:17:43.531Z,8.89
2019-02-28T00:18:41.117Z,8.87
2019-02-28T00:19:41.082Z,8.84
2019-02-28T00:20:41.047Z,8.92
2019-02-28T00:21:41.319Z,8.82
2019-02-28T00:22:41.000Z,8.89
2019-02-28T00:23:40.940Z,8.85
2019-02-28T00:24:40.909Z,8.85
2019-02-28T00:25:40.885Z,8.79
2019-02-28T00:26:46.447Z,8.82
2019-02-28T00:27:40.815Z,8.82
2019-02-28T00:28:40.766Z,8.85
2019-02-28T00:29:40.723Z,8.85
2019-02-28T00:30:40.893Z,8.71
2019-02-28T00:31:40.660Z,8.78
2019-02-28T00:32:40.618Z,8.85
2019-02-28T00:33:40.590Z,8.81
2019-02-28T00:34:40.552Z,8.73
2019-02-28T00:35:40.517Z,8.76
2019-02-28T00:36:40.492Z,8.69
2019-02-28T00:37:40.449Z,8.85
2019-02-28T00:38:40.487Z,8.79
2019-02-28T00:39:40.377Z,8.76
2019-02-28T00:40:40.346Z,8.78
2019-02-28T00:41:44.274Z,8.73
2019-02-28T00:42:40.273Z,8.81
2019-02-28T00:43:40.236Z,8.76
2019-02-28T00:44:40.203Z,8.70
2019-02-28T00:45:40.160Z,8.73
2019-02-28T00:46:44.047Z,8.69
2019-02-28T00:47:40.098Z,8.71
2019-02-28T00:48:40.069Z,8.67
2019-02-28T00:49:40.024Z,8.73
2019-02-28T00:50:40.007Z,8.67
2019-02-28T00:51:39.959Z,8.76
2019-02-28T00:52:39.951Z,8.73
2019-02-28T00:53:39.888Z,8.71
2019-02-28T00:54:43.188Z,8.71
2019-02-28T00:55:39.816Z,8.69
2019-02-28T00:56:39.781Z,8.76
2019-02-28T00:57:39.756Z,8.70
2019-02-28T00:58:39.730Z,8.69
2019-02-28T00:59:39.678Z,8.66
2019-02-28T01:00:39.639Z,8.61
2019-02-28T01:01:39.604Z,8.61
2019-02-28T01:02:39.572Z,8.55
2019-02-28T01:03:39.536Z,8.51
2019-02-28T01:04:39.493Z,8.51
2019-02-28T01:05:39.461Z,8.41
2019-02-28T01:06:41.711Z,8.42
2019-02-28T01:08:02.887Z,8.38
2019-02-28T01:08:39.362Z,8.38
2019-02-28T01:09:39.326Z,8.38
2019-02-28T01:10:40.039Z,8.31
2019-02-28T01:11:39.245Z,8.33
2019-02-28T01:12:39.220Z,8.38
2019-02-28T01:13:39.179Z,8.31
2019-02-28T01:14:39.141Z,8.37
2019-02-28T01:15:44.421Z,8.51
2019-02-28T01:16:41.317Z,8.60
2019-02-28T01:17:39.040Z,8.55
2019-02-28T01:18:39.002Z,8.61
2019-02-28T01:19:41.255Z,8.61
2019-02-28T01:20:38.932Z,8.66
2019-02-28T01:21:38.889Z,8.58
2019-02-28T01:22:38.858Z,8.58
2019-02-28T01:23:38.823Z,8.69
2019-02-28T01:24:38.802Z,8.71
2019-02-28T01:25:40.134Z,8.70
2019-02-28T01:26:38.716Z,8.69
2019-02-28T01:27:38.694Z,8.66
2019-02-28T01:28:38.648Z,8.38
2019-02-28T01:29:38.610Z,8.13
2019-02-28T01:30:40.472Z,7.95
2019-02-28T01:31:38.541Z,7.66
2019-02-28T01:32:38.499Z,7.45
2019-02-28T01:33:38.470Z,7.05
2019-02-28T01:34:38.437Z,6.93
2019-02-28T01:35:40.806Z,6.88
2019-02-28T01:36:38.356Z,6.69
2019-02-28T01:37:38.354Z,6.74
2019-02-28T01:38:38.291Z,6.74
2019-02-28T01:39:38.254Z,6.69
2019-02-28T01:40:38.446Z,6.60
2019-02-28T01:41:38.182Z,6.46
2019-02-28T01:42:38.147Z,6.26
2019-02-28T01:43:38.125Z,6.16
2019-02-28T01:44:38.090Z,6.14
2019-02-28T01:45:38.037Z,6.09
2019-02-28T01:46:38.001Z,6.05
2019-02-28T01:47:37.966Z,6.02
2019-02-28T01:48:37.930Z,6.04
2019-02-28T01:49:37.892Z,6.07
2019-02-28T01:50:37.874Z,5.94
2019-02-28T01:51:38.771Z,5.98
2019-02-28T01:52:37.785Z,5.99
2019-02-28T01:53:37.748Z,5.98
2019-02-28T01:54:37.717Z,5.98
2019-02-28T01:55:37.708Z,5.98
2019-02-28T01:56:37.848Z,6.12
2019-02-28T01:57:42.311Z,6.11
2019-02-28T01:58:37.560Z,6.26
2019-02-28T01:59:37.526Z,6.39
2019-02-28T02:00:37.492Z,6.48
2019-02-28T02:01:37.485Z,6.67
2019-02-28T02:02:38.963Z,6.79
2019-02-28T02:03:40.682Z,6.88
2019-02-28T02:04:37.351Z,7.07
2019-02-28T02:05:37.309Z,7.21
2019-02-28T02:06:37.281Z,7.29
2019-02-28T02:07:37.233Z,7.42
2019-02-28T02:08:37.797Z,7.48
2019-02-28T02:09:37.158Z,7.51
2019-02-28T02:10:37.142Z,7.54
2019-02-28T02:11:37.087Z,7.60
2019-02-28T02:12:37.055Z,7.72
2019-02-28T02:13:37.497Z,7.83
2019-02-28T02:14:36.976Z,7.82
2019-02-28T02:15:36.943Z,7.77
2019-02-28T02:16:36.906Z,7.79
2019-02-28T02:17:36.874Z,7.79
2019-02-28T02:18:36.845Z,7.82
2019-02-28T02:19:36.798Z,7.82
2019-02-28T02:20:36.751Z,7.66
2019-02-28T02:21:36.735Z,7.48
2019-02-28T02:22:36.686Z,7.33
2019-02-28T02:23:36.648Z,7.28
2019-02-28T02:24:36.616Z,7.03
2019-02-28T02:25:37.502Z,6.99
2019-02-28T02:26:36.535Z,6.88
2019-02-28T02:27:36.507Z,6.78
2019-02-28T02:28:36.468Z,6.67
2019-02-28T02:29:37.093Z,6.49
2019-02-28T02:30:36.397Z,6.35
2019-02-28T02:31:36.390Z,6.22
2019-02-28T02:32:38.742Z,6.22
2019-02-28T02:33:36.292Z,6.07
2019-02-28T02:34:36.252Z,5.87
2019-02-28T02:35:42.240Z,5.84
2019-02-28T02:36:36.194Z,5.82
2019-02-28T02:37:36.141Z,5.68
2019-02-28T02:38:40.544Z,5.65
2019-02-28T02:39:36.062Z,5.64
2019-02-28T02:40:36.049Z,5.59
2019-02-28T02:41:35.997Z,5.51
2019-02-28T02:42:35.960Z,5.47
2019-02-28T02:43:35.925Z,5.51
2019-02-28T02:44:35.885Z,5.46
2019-02-28T02:45:41.736Z,5.54
2019-02-28T02:46:35.810Z,5.50
2019-02-28T02:47:35.774Z,5.46
2019-02-28T02:48:38.560Z,5.57
2019-02-28T02:49:35.712Z,5.57
2019-02-28T02:50:36.127Z,5.69
2019-02-28T02:51:35.630Z,5.89
2019-02-28T02:52:35.590Z,6.01
2019-02-28T02:53:41.406Z,6.08
2019-02-28T02:54:35.529Z,6.26
2019-02-28T02:55:35.482Z,6.42
2019-02-28T02:56:40.692Z,6.48
2019-02-28T02:57:35.408Z,6.60
2019-02-28T02:58:35.363Z,6.67
2019-02-28T02:59:39.106Z,6.74
2019-02-28T03:00:35.333Z,6.78
2019-02-28T03:01:35.297Z,6.78
2019-02-28T03:02:35.223Z,6.78
2019-02-28T03:03:35.191Z,6.96
2019-02-28T03:04:35.151Z,6.93
2019-02-28T03:05:36.661Z,6.88
2019-02-28T03:06:35.096Z,6.87
2019-02-28T03:07:35.035Z,7.00
2019-02-28T03:08:36.386Z,7.02
2019-02-28T03:09:34.977Z,6.97
2019-02-28T03:10:34.939Z,6.93
2019-02-28T03:11:34.894Z,6.95
2019-02-28T03:12:34.866Z,6.93
2019-02-28T03:13:41.923Z,6.96
2019-02-28T03:14:34.782Z,6.92
2019-02-28T03:15:34.765Z,6.82
2019-02-28T03:16:34.750Z,6.85
2019-02-28T03:17:34.673Z,6.89
2019-02-28T03:18:34.661Z,6.96
2019-02-28T03:19:34.696Z,6.96
2019-02-28T03:20:34.563Z,7.03
2019-02-28T03:21:34.526Z,6.95
2019-02-28T03:22:34.491Z,6.96
2019-02-28T03:23:40.132Z,6.92
2019-02-28T03:24:34.420Z,6.96
2019-02-28T03:25:34.378Z,7.07
2019-02-28T03:26:34.345Z,7.07
2019-02-28T03:27:34.311Z,7.11
2019-02-28T03:28:34.272Z,7.20
2019-02-28T03:29:34.237Z,7.17
2019-02-28T03:30:34.224Z,7.18
2019-02-28T03:31:34.374Z,7.28
2019-02-28T03:32:42.188Z,7.38
2019-02-28T03:33:34.105Z,7.32
2019-02-28T03:34:34.062Z,7.36
2019-02-28T03:35:41.430Z,7.35
2019-02-28T03:36:33.989Z,7.31
2019-02-28T03:37:34.590Z,7.35
2019-02-28T03:38:33.908Z,7.43
2019-02-28T03:39:33.872Z,7.39
2019-02-28T03:40:39.732Z,7.36
2019-02-28T03:41:33.799Z,7.42
2019-02-28T03:42:33.761Z,7.39
2019-02-28T03:43:33.735Z,7.39
2019-02-28T03:44:33.690Z,7.33
2019-02-28T03:45:35.181Z,7.38
2019-02-28T03:46:33.624Z,7.32
2019-02-28T03:47:33.594Z,7.32
2019-02-28T03:48:35.896Z,7.35
2019-02-28T03:49:33.510Z,7.23
2019-02-28T03:50:33.481Z,7.23
2019-02-28T03:51:33.453Z,7.17
2019-02-28T03:52:33.395Z,7.06
2019-02-28T03:53:33.373Z,7.05
2019-02-28T03:54:33.329Z,7.11
2019-02-28T03:55:39.840Z,6.99
2019-02-28T03:56:33.254Z,6.97
2019-02-28T03:57:33.216Z,7.02
2019-02-28T03:58:33.179Z,6.89
2019-02-28T03:59:33.143Z,7.06
2019-02-28T04:00:34.161Z,7.06
2019-02-28T04:01:33.069Z,6.95
2019-02-28T04:02:33.033Z,6.96
2019-02-28T04:03:33.714Z,6.93
2019-02-28T04:04:32.969Z,6.97
2019-02-28T04:05:32.923Z,6.96
2019-02-28T04:06:39.518Z,6.95
2019-02-28T04:07:34.684Z,6.96
2019-02-28T04:08:32.817Z,6.89
2019-02-28T04:09:32.780Z,6.92
2019-02-28T04:10:32.748Z,6.99
2019-02-28T04:11:32.708Z,6.96
2019-02-28T04:12:32.671Z,6.95
2019-02-28T04:13:32.651Z,6.96
2019-02-28T04:14:33.103Z,6.96
2019-02-28T04:15:32.581Z,7.05
2019-02-28T04:16:32.528Z,6.93
2019-02-28T04:17:32.506Z,6.95
2019-02-28T04:18:32.453Z,6.92
2019-02-28T04:19:32.417Z,7.10
2019-02-28T04:20:37.433Z,7.05
2019-02-28T04:21:32.340Z,7.11
2019-02-28T04:22:32.322Z,6.99
2019-02-28T04:23:36.169Z,6.99
2019-02-28T04:24:32.229Z,6.99
2019-02-28T04:25:32.205Z,6.95
2019-02-28T04:26:32.158Z,6.97
2019-02-28T04:27:32.124Z,6.82
2019-02-28T04:28:32.085Z,6.97
2019-02-28T04:29:32.068Z,6.85
2019-02-28T04:30:32.018Z,6.85
2019-02-28T04:31:31.979Z,6.77
2019-02-28T04:32:31.943Z,6.85
2019-02-28T04:33:37.697Z,6.81
2019-02-28T04:34:31.865Z,6.78
2019-02-28T04:35:31.830Z,6.78
2019-02-28T04:36:35.461Z,6.75
2019-02-28T04:37:31.758Z,6.67
2019-02-28T04:38:31.720Z,6.78
2019-02-28T04:39:31.681Z,6.79
2019-02-28T04:40:31.653Z,6.75
2019-02-28T04:41:32.995Z,6.74
2019-02-28T04:42:32.203Z,6.69
2019-02-28T04:43:31.535Z,6.77
2019-02-28T04:44:32.201Z,6.74
2019-02-28T04:45:31.468Z,6.74
2019-02-28T04:46:31.884Z,6.72
2019-02-28T04:47:31.387Z,6.63
2019-02-28T04:48:31.352Z,6.62
2019-02-28T04:49:31.322Z,6.60
2019-02-28T04:50:32.197Z,6.62
2019-02-28T04:51:31.245Z,6.51
2019-02-28T04:52:31.206Z,6.48
2019-02-28T04:53:31.168Z,6.56
2019-02-28T04:54:31.133Z,6.51
2019-02-28T04:55:31.097Z,6.42
2019-02-28T04:56:31.060Z,6.49
2019-02-28T04:57:31.026Z,6.45
2019-02-28T04:58:30.986Z,6.52
2019-02-28T04:59:31.633Z,6.62
2019-02-28T05:00:30.917Z,6.60
2019-02-28T05:01:30.877Z,6.52
2019-02-28T05:02:30.839Z,6.52
2019-02-28T05:03:30.806Z,6.59
2019-02-28T05:04:33.237Z,6.56
2019-02-28T05:05:30.730Z,6.52
2019-02-28T05:06:30.692Z,6.52
2019-02-28T05:07:30.678Z,6.46
2019-02-28T05:08:30.622Z,6.48
2019-02-28T05:09:30.580Z,6.46
2019-02-28T05:10:30.549Z,6.48
2019-02-28T05:11:31.398Z,6.60
2019-02-28T05:12:30.473Z,6.62
2019-02-28T05:13:30.436Z,6.63
2019-02-28T05:14:30.428Z,6.72
2019-02-28T05:15:30.365Z,6.72
2019-02-28T05:16:30.330Z,6.74
2019-02-28T05:17:30.288Z,6.78
2019-02-28T05:18:30.252Z,6.85
2019-02-28T05:19:32.391Z,6.87
2019-02-28T05:20:30.180Z,6.84
2019-02-28T05:21:30.142Z,6.88
2019-02-28T05:22:30.112Z,6.84
2019-02-28T05:23:30.071Z,6.79
2019-02-28T05:24:30.040Z,6.81
2019-02-28T05:25:29.994Z,6.84
2019-02-28T05:26:29.962Z,6.77
2019-02-28T05:27:34.812Z,6.88
2019-02-28T05:28:29.887Z,6.81
2019-02-28T05:29:29.851Z,6.85
2019-02-28T05:30:29.812Z,6.85
2019-02-28T05:31:29.777Z,6.87
2019-02-28T05:32:32.120Z,6.82
2019-02-28T05:33:29.719Z,6.87
2019-02-28T05:34:29.666Z,6.84
2019-02-28T05:35:29.629Z,6.78
2019-02-28T05:36:29.597Z,6.78
2019-02-28T05:37:29.559Z,6.79
2019-02-28T05:38:29.520Z,6.78
2019-02-28T05:39:30.984Z,6.81
2019-02-28T05:40:29.446Z,6.74
2019-02-28T05:41:29.403Z,6.79
2019-02-28T05:42:29.374Z,6.78
2019-02-28T05:43:32.192Z,6.78
2019-02-28T05:44:29.300Z,6.67
2019-02-28T05:45:29.270Z,6.72
2019-02-28T05:46:29.226Z,6.78
2019-02-28T05:47:29.363Z,6.69
2019-02-28T05:48:29.156Z,6.75
2019-02-28T05:49:29.119Z,6.74
2019-02-28T05:50:29.080Z,6.78
2019-02-28T05:51:29.043Z,6.72
2019-02-28T05:52:30.480Z,6.75
2019-02-28T05:53:28.964Z,6.82
2019-02-28T05:54:28.935Z,6.81
2019-02-28T05:55:28.895Z,6.84
2019-02-28T05:56:32.778Z,6.81
2019-02-28T05:57:28.827Z,6.93
2019-02-28T05:58:28.787Z,6.88
2019-02-28T05:59:28.752Z,6.97
2019-02-28T06:00:28.715Z,6.85
2019-02-28T06:01:28.684Z,6.85
2019-02-28T06:02:28.638Z,6.84
2019-02-28T06:03:29.566Z,6.84
2019-02-28T06:04:28.580Z,6.89
2019-02-28T06:05:28.531Z,6.92
2019-02-28T06:06:28.497Z,6.89
2019-02-28T06:07:28.917Z,6.85
2019-02-28T06:08:28.421Z,6.89
2019-02-28T06:09:28.383Z,6.85
2019-02-28T06:10:28.360Z,6.82
2019-02-28T06:11:31.396Z,6.72
2019-02-28T06:12:28.279Z,6.77
2019-02-28T06:13:28.242Z,6.75
2019-02-28T06:14:28.202Z,6.72
2019-02-28T06:15:28.993Z,6.77
2019-02-28T06:16:28.130Z,6.72
2019-02-28T06:17:28.093Z,6.67
2019-02-28T06:18:32.630Z,6.66
2019-02-28T06:19:28.020Z,6.62
2019-02-28T06:20:27.982Z,6.62
2019-02-28T06:21:27.947Z,6.64
2019-02-28T06:22:30.539Z,6.66
2019-02-28T06:23:27.904Z,6.66
2019-02-28T06:24:27.844Z,6.62
2019-02-28T06:25:27.805Z,6.62
2019-02-28T06:26:27.767Z,6.72
2019-02-28T06:27:27.728Z,6.69
2019-02-28T06:28:30.934Z,6.70
2019-02-28T06:29:27.653Z,6.66
2019-02-28T06:30:27.913Z,6.75
2019-02-28T06:31:27.586Z,6.67
2019-02-28T06:32:27.553Z,6.75
2019-02-28T06:33:30.563Z,6.72
2019-02-28T06:34:27.467Z,6.79
2019-02-28T06:35:27.434Z,6.72
2019-02-28T06:36:29.171Z,6.78
2019-02-28T06:37:27.369Z,6.87
2019-02-28T06:38:27.325Z,6.84
2019-02-28T06:39:27.711Z,6.92
2019-02-28T06:40:30.157Z,6.95
2019-02-28T06:41:27.216Z,7.05
2019-02-28T06:42:27.179Z,7.10
2019-02-28T06:43:27.149Z,7.02
2019-02-28T06:44:27.706Z,7.23
2019-02-28T06:45:27.069Z,7.20
2019-02-28T06:46:27.034Z,7.20
2019-02-28T06:47:26.998Z,7.20
2019-02-28T06:48:26.965Z,7.32
2019-02-28T06:49:26.926Z,7.35
2019-02-28T06:50:26.892Z,7.53
2019-02-28T06:51:26.854Z,7.48
2019-02-28T06:52:26.817Z,7.45
2019-02-28T06:53:26.781Z,7.51
2019-02-28T06:54:26.745Z,7.54
2019-02-28T06:55:26.713Z,7.60
2019-02-28T06:56:26.670Z,7.82
2019-02-28T06:57:27.459Z,7.83
2019-02-28T06:58:26.602Z,7.97
2019-02-28T06:59:26.568Z,8.00
2019-02-28T07:00:26.556Z,8.05
2019-02-28T07:01:26.492Z,8.05
2019-02-28T07:02:28.582Z,8.19
2019-02-28T07:03:26.427Z,8.28
2019-02-28T07:04:26.391Z,8.51
2019-02-28T07:05:26.443Z,8.52
2019-02-28T07:06:26.327Z,8.69
2019-02-28T07:07:26.297Z,8.78
2019-02-28T07:08:28.970Z,8.82
2019-02-28T07:09:26.218Z,8.88
2019-02-28T07:10:26.180Z,9.02
2019-02-28T07:11:26.166Z,9.16
2019-02-28T07:12:29.548Z,9.25
2019-02-28T07:13:26.118Z,9.41
2019-02-28T07:14:26.042Z,9.44
2019-02-28T07:15:26.011Z,9.54
2019-02-28T07:16:25.979Z,9.74
2019-02-28T07:17:25.940Z,9.86
2019-02-28T07:18:25.915Z,10.10
2019-02-28T07:19:26.407Z,10.15
2019-02-28T07:20:25.863Z,10.37
2019-02-28T07:21:25.812Z,10.46
2019-02-28T07:22:25.781Z,10.59
2019-02-28T07:23:26.739Z,10.76
2019-02-28T07:24:25.738Z,10.72
2019-02-28T07:25:25.681Z,10.93
2019-02-28T07:26:25.652Z,11.12
2019-02-28T07:27:26.661Z,11.23
2019-02-28T07:28:25.586Z,11.32
2019-02-28T07:29:25.555Z,11.47
2019-02-28T07:30:25.529Z,11.66
2019-02-28T07:31:25.562Z,11.80
2019-02-28T07:32:26.181Z,11.99
2019-02-28T07:33:25.429Z,11.97
2019-02-28T07:34:25.403Z,12.18
2019-02-28T07:35:25.362Z,12.32
2019-02-28T07:36:25.336Z,12.39
2019-02-28T07:37:25.309Z,12.42
2019-02-28T07:38:25.677Z,12.46
2019-02-28T07:39:25.244Z,12.37
2019-02-28T07:40:25.216Z,12.57
2019-02-28T07:41:26.661Z,12.64
2019-02-28T07:42:25.153Z,12.64
2019-02-28T07:43:25.126Z,12.76
2019-02-28T07:44:25.097Z,12.83
2019-02-28T07:45:25.066Z,13.04
2019-02-28T07:46:25.037Z,13.13
2019-02-28T07:47:25.487Z,13.27
2019-02-28T07:48:29.087Z,13.46
2019-02-28T07:49:25.851Z,13.42
2019-02-28T07:50:24.908Z,13.62
2019-02-28T07:51:26.347Z,13.89
2019-02-28T07:52:24.855Z,14.00
2019-02-28T07:53:24.836Z,14.18
2019-02-28T07:54:24.823Z,14.28
2019-02-28T07:55:27.311Z,14.44
2019-02-28T07:56:24.738Z,14.55
2019-02-28T07:57:24.710Z,14.91
2019-02-28T07:58:26.616Z,14.92
2019-02-28T07:59:24.654Z,14.97
2019-02-28T08:00:24.623Z,15.19
2019-02-28T08:01:27.715Z,15.40
2019-02-28T08:02:24.565Z,15.54
2019-02-28T08:03:24.538Z,15.59
2019-02-28T08:04:24.512Z,15.68
2019-02-28T08:05:30.169Z,15.80
2019-02-28T08:06:24.455Z,15.92
2019-02-28T08:07:24.446Z,15.95
2019-02-28T08:08:26.440Z,16.24
2019-02-28T08:09:24.373Z,16.28
2019-02-28T08:10:24.344Z,16.53
2019-02-28T08:11:24.320Z,16.64
2019-02-28T08:12:27.460Z,16.68
2019-02-28T08:13:25.220Z,16.93
2019-02-28T08:14:24.235Z,17.05
2019-02-28T08:15:24.726Z,17.19
2019-02-28T08:16:24.178Z,17.42
2019-02-28T08:17:24.158Z,17.76
2019-02-28T08:18:24.126Z,17.56
2019-02-28T08:19:27.239Z,17.80
2019-02-28T08:20:24.073Z,17.98
2019-02-28T08:21:24.068Z,18.25
2019-02-28T08:22:24.722Z,18.35
2019-02-28T08:23:23.998Z,18.55
2019-02-28T08:24:23.975Z,18.56
2019-02-28T08:25:23.947Z,18.55
2019-02-28T08:26:23.918Z,18.84
2019-02-28T08:27:25.368Z,19.19
2019-02-28T08:28:23.870Z,19.19
2019-02-28T08:29:23.844Z,19.04
2019-02-28T08:30:23.822Z,19.08
2019-02-28T08:31:23.799Z,19.27
2019-02-28T08:32:23.765Z,19.29
2019-02-28T08:33:23.746Z,19.29
2019-02-28T08:34:24.776Z,19.48
2019-02-28T08:35:23.696Z,19.63
2019-02-28T08:36:23.670Z,19.64
2019-02-28T08:37:23.652Z,19.91
2019-02-28T08:38:23.632Z,19.92
2019-02-28T08:39:23.594Z,19.88
2019-02-28T08:40:26.331Z,19.95
2019-02-28T08:41:25.698Z,19.88
2019-02-28T08:42:23.525Z,19.96
2019-02-28T08:43:27.142Z,20.36
2019-02-28T08:44:24.070Z,20.39
2019-02-28T08:45:23.445Z,20.65
2019-02-28T08:46:23.419Z,20.95
2019-02-28T08:47:23.404Z,21.00
2019-02-28T08:48:23.382Z,21.06
2019-02-28T08:49:23.358Z,21.36
2019-02-28T08:50:23.746Z,21.36
2019-02-28T08:51:23.309Z,21.48
2019-02-28T08:52:23.290Z,21.20
2019-02-28T08:53:23.288Z,21.54
2019-02-28T08:54:27.257Z,21.43
2019-02-28T08:55:28.687Z,21.58
2019-02-28T08:56:23.132Z,21.48
2019-02-28T08:57:25.699Z,21.30
2019-02-28T08:58:23.142Z,21.66
2019-02-28T08:59:23.127Z,21.72
2019-02-28T09:00:23.095Z,21.93
2019-02-28T09:01:23.086Z,21.79
2019-02-28T09:02:23.049Z,21.76
2019-02-28T09:03:24.261Z,21.73
2019-02-28T09:04:22.999Z,21.36
2019-02-28T09:05:26.160Z,21.77
2019-02-28T09:06:22.952Z,21.92
2019-02-28T09:07:22.926Z,22.26
2019-02-28T09:08:25.361Z,22.48
2019-02-28T09:09:22.881Z,22.48
2019-02-28T09:10:22.862Z,22.63
2019-02-28T09:11:22.833Z,22.70
2019-02-28T09:12:22.812Z,22.55
2019-02-28T09:13:23.005Z,22.70
2019-02-28T09:14:22.765Z,22.94
2019-02-28T09:15:22.740Z,23.17
2019-02-28T09:16:22.714Z,23.12
2019-02-28T09:17:22.696Z,23.10
2019-02-28T09:18:22.665Z,23.24
2019-02-28T09:19:22.649Z,23.15
2019-02-28T09:20:22.620Z,23.23
2019-02-28T09:21:22.597Z,23.21
2019-02-28T09:22:27.116Z,23.13
2019-02-28T09:23:23.521Z,22.99
2019-02-28T09:24:22.527Z,22.81
2019-02-28T09:25:22.887Z,22.83
2019-02-28T09:26:22.480Z,22.96
2019-02-28T09:27:22.459Z,23.13
2019-02-28T09:28:22.436Z,23.24
2019-02-28T09:29:22.409Z,22.96
2019-02-28T09:30:22.386Z,23.00
2019-02-28T09:31:22.368Z,22.68
2019-02-28T09:32:22.336Z,22.62
2019-02-28T09:33:23.238Z,22.63
2019-02-28T09:34:22.293Z,22.62
2019-02-28T09:35:22.271Z,22.20
2019-02-28T09:36:22.244Z,22.45
2019-02-28T09:37:22.220Z,22.29
2019-02-28T09:38:22.188Z,22.23
2019-02-28T09:39:22.171Z,22.28
2019-02-28T09:40:22.141Z,22.39
2019-02-28T09:41:22.125Z,22.60
2019-02-28T09:42:22.099Z,22.69
2019-02-28T09:43:23.861Z,22.47
2019-02-28T09:44:22.055Z,22.26
2019-02-28T09:45:22.077Z,21.69
2019-02-28T09:46:22.000Z,21.37
2019-02-28T09:47:23.359Z,20.96
2019-02-28T09:48:21.952Z,20.78
2019-02-28T09:49:21.950Z,20.24
2019-02-28T09:50:22.604Z,19.86
2019-02-28T09:51:21.876Z,19.64
2019-02-28T09:52:22.815Z,19.48
2019-02-28T09:53:21.826Z,19.27
2019-02-28T09:54:24.360Z,19.14
2019-02-28T09:55:21.785Z,18.84
2019-02-28T09:56:21.759Z,18.52
2019-02-28T09:57:22.671Z,18.43
2019-02-28T09:58:21.696Z,18.25
2019-02-28T09:59:21.666Z,18.52
2019-02-28T10:00:21.639Z,18.44
2019-02-28T10:01:24.418Z,18.31
2019-02-28T10:02:21.585Z,18.20
2019-02-28T10:03:21.560Z,18.07
2019-02-28T10:04:21.549Z,18.04
2019-02-28T10:05:21.510Z,17.82
2019-02-28T10:06:21.485Z,17.72
2019-02-28T10:07:23.357Z,17.68
2019-02-28T10:08:21.847Z,17.24
2019-02-28T10:09:21.391Z,17.38
2019-02-28T10:10:22.040Z,17.27
2019-02-28T10:11:21.856Z,17.26
2019-02-28T10:12:21.311Z,17.15
2019-02-28T10:13:21.279Z,17.15
2019-02-28T10:14:21.258Z,17.11
2019-02-28T10:15:21.222Z,17.08
2019-02-28T10:16:21.221Z,17.05
2019-02-28T10:17:22.684Z,17.01
2019-02-28T10:18:21.123Z,16.94
2019-02-28T10:19:21.105Z,16.97
2019-02-28T10:20:26.475Z,16.72
2019-02-28T10:21:21.045Z,16.86
2019-02-28T10:22:21.022Z,16.76
2019-02-28T10:23:21.518Z,16.64
2019-02-28T10:24:20.957Z,16.64
2019-02-28T10:25:20.930Z,16.68
2019-02-28T10:26:20.901Z,16.61
2019-02-28T10:27:26.429Z,16.56
2019-02-28T10:28:20.837Z,16.29
2019-02-28T10:29:20.830Z,16.28
2019-02-28T10:30:30.782Z,16.33
2019-02-28T10:31:22.925Z,16.24
2019-02-28T10:32:20.729Z,16.00
2019-02-28T10:33:20.690Z,15.88
2019-02-28T10:34:23.499Z,15.97
2019-02-28T10:35:20.633Z,15.91
2019-02-28T10:36:20.615Z,15.91
2019-02-28T10:37:22.674Z,15.79
2019-02-28T10:38:20.539Z,15.68
2019-02-28T10:39:20.509Z,15.65
2019-02-28T10:40:20.480Z,15.72
2019-02-28T10:41:20.448Z,15.76
2019-02-28T10:42:20.415Z,15.84
2019-02-28T10:43:20.385Z,15.65
2019-02-28T10:44:20.373Z,15.80
2019-02-28T10:45:20.345Z,15.76
2019-02-28T10:46:20.380Z,15.67
2019-02-28T10:47:20.265Z,15.72
2019-02-28T10:48:20.235Z,16.00
2019-02-28T10:49:21.078Z,16.15
2019-02-28T10:50:20.172Z,16.28
2019-02-28T10:51:20.147Z,16.42
2019-02-28T10:52:20.116Z,16.64
2019-02-28T10:53:20.085Z,16.74
2019-02-28T10:54:20.054Z,16.93
2019-02-28T10:55:22.410Z,17.09
2019-02-28T10:56:19.999Z,17.20
2019-02-28T10:57:19.973Z,17.19
2019-02-28T10:58:19.941Z,17.44
2019-02-28T10:59:21.318Z,17.23
2019-02-28T11:00:20.221Z,17.26
2019-02-28T11:01:19.853Z,17.60
2019-02-28T11:02:19.986Z,17.79
2019-02-28T11:03:19.808Z,17.83
2019-02-28T11:04:19.769Z,18.01
2019-02-28T11:05:19.752Z,18.04
2019-02-28T11:06:19.712Z,18.35
2019-02-28T11:07:19.687Z,18.19
2019-02-28T11:08:19.658Z,18.07
2019-02-28T11:09:21.808Z,18.10
2019-02-28T11:10:19.596Z,17.89
2019-02-28T11:11:19.575Z,17.78
2019-02-28T11:12:20.298Z,17.82
2019-02-28T11:13:19.536Z,17.76
2019-02-28T11:14:19.493Z,17.78
2019-02-28T11:15:19.469Z,17.87
2019-02-28T11:16:20.507Z,17.95
2019-02-28T11:17:19.411Z,17.79
2019-02-28T11:18:19.396Z,17.80
2019-02-28T11:19:19.583Z,17.90
2019-02-28T11:20:22.398Z,18.11
2019-02-28T11:21:19.300Z,18.31
2019-02-28T11:22:19.272Z,18.44
2019-02-28T11:23:19.241Z,18.44
2019-02-28T11:24:20.618Z,18.22
2019-02-28T11:25:19.192Z,18.35
2019-02-28T11:26:19.169Z,18.81
2019-02-28T11:27:20.899Z,19.19
2019-02-28T11:28:19.110Z,19.34
2019-02-28T11:29:19.083Z,19.55
2019-02-28T11:30:19.053Z,19.92
2019-02-28T11:31:19.951Z,20.22
2019-02-28T11:32:19.002Z,20.75
2019-02-28T11:33:18.978Z,21.39
2019-02-28T11:34:18.948Z,21.40
2019-02-28T11:35:20.092Z,21.54
2019-02-28T11:36:18.893Z,21.69
2019-02-28T11:37:18.876Z,21.30
2019-02-28T11:38:21.557Z,21.24
2019-02-28T11:39:18.827Z,21.02
2019-02-28T11:40:18.805Z,20.06
2019-02-28T11:41:19.660Z,20.14
2019-02-28T11:42:18.751Z,20.26
2019-02-28T11:43:18.729Z,20.40
2019-02-28T11:44:18.762Z,20.32
2019-02-28T11:45:21.933Z,20.43
2019-02-28T11:46:19.806Z,20.84
2019-02-28T11:47:18.632Z,20.93
2019-02-28T11:48:20.151Z,21.07
2019-02-28T11:49:18.589Z,21.11
2019-02-28T11:50:18.558Z,20.87
2019-02-28T11:51:18.609Z,20.92
2019-02-28T11:52:18.504Z,21.03
2019-02-28T11:53:19.134Z,21.05
2019-02-28T11:54:18.449Z,21.05
2019-02-28T11:55:20.393Z,21.09
2019-02-28T11:56:18.413Z,21.17
2019-02-28T11:57:18.401Z,21.20
2019-02-28T11:58:18.375Z,21.29
2019-02-28T11:59:18.338Z,21.30
2019-02-28T12:00:18.313Z,20.97
2019-02-28T12:01:18.293Z,20.87
2019-02-28T12:02:20.181Z,20.59
2019-02-28T12:03:18.289Z,20.90
2019-02-28T12:04:18.216Z,20.75
2019-02-28T12:05:18.195Z,20.87
2019-02-28T12:06:18.169Z,20.81
2019-02-28T12:07:18.150Z,20.77
2019-02-28T12:08:18.129Z,20.82
2019-02-28T12:09:19.292Z,20.74
2019-02-28T12:10:18.078Z,20.80
2019-02-28T12:11:18.050Z,20.93
2019-02-28T12:12:18.025Z,20.52
2019-02-28T12:13:19.634Z,20.62
2019-02-28T12:14:17.993Z,20.75
2019-02-28T12:15:17.944Z,20.62
2019-02-28T12:16:19.263Z,20.40
2019-02-28T12:17:17.904Z,20.25
2019-02-28T12:18:17.873Z,20.02
2019-02-28T12:19:17.857Z,19.96
2019-02-28T12:20:17.828Z,19.73
2019-02-28T12:21:17.822Z,19.58
2019-02-28T12:22:17.798Z,19.51
2019-02-28T12:23:22.993Z,19.29
2019-02-28T12:24:17.726Z,19.27
2019-02-28T12:25:17.716Z,19.34
2019-02-28T12:26:18.739Z,19.24
2019-02-28T12:27:17.660Z,19.24
2019-02-28T12:28:17.656Z,19.18
2019-02-28T12:29:18.293Z,18.74
2019-02-28T12:30:18.816Z,18.22
2019-02-28T12:31:17.551Z,17.64
2019-02-28T12:32:17.532Z,17.44
2019-02-28T12:33:18.661Z,17.49
2019-02-28T12:34:17.482Z,17.49
2019-02-28T12:35:17.461Z,17.24
2019-02-28T12:36:17.429Z,17.11
2019-02-28T12:37:17.407Z,16.71
2019-02-28T12:38:17.378Z,16.51
2019-02-28T12:39:17.347Z,16.05
2019-02-28T12:40:17.341Z,16.02
2019-02-28T12:41:17.299Z,15.68
2019-02-28T12:42:17.274Z,15.33
2019-02-28T12:43:17.258Z,15.10
2019-02-28T12:44:17.221Z,14.92
2019-02-28T12:45:17.183Z,14.84
2019-02-28T12:46:17.160Z,14.45
2019-02-28T12:47:17.132Z,14.44
2019-02-28T12:48:17.110Z,14.18
2019-02-28T12:49:21.744Z,14.14
2019-02-28T12:50:17.045Z,14.10
2019-02-28T12:51:17.016Z,13.83
2019-02-28T12:52:16.994Z,13.96
2019-02-28T12:53:16.958Z,13.86
2019-02-28T12:54:16.921Z,13.63
2019-02-28T12:55:16.899Z,13.52
2019-02-28T12:56:16.864Z,13.38
2019-02-28T12:57:19.294Z,13.30
2019-02-28T12:58:16.801Z,13.23
2019-02-28T12:59:16.773Z,13.11
2019-02-28T13:00:19.856Z,12.95
2019-02-28T13:01:16.713Z,12.87
2019-02-28T13:02:16.680Z,12.82
2019-02-28T13:03:20.038Z,12.79
2019-02-28T13:04:16.624Z,12.76
2019-02-28T13:05:16.595Z,12.73
2019-02-28T13:06:16.551Z,12.62